sensor_id;sensor_type;location;lat;lon;timestamp;P1;durP1;ratioP1;P2;durP2;ratioP2
37231;SDS011;23125;48.156;15.954;2022-07-23T00:02:11;9.90;;;8.97;;
37231;SDS011;23125;48.156;15.954;2022-07-23T00:04:38;10.30;;;8.65;;
37231;SDS011;23125;48.156;15.954;2022-07-23T00:07:10;10.20;;;9.07;;
37231;SDS011;23125;48.156;15.954;2022-07-23T00:09:38;11.73;;;8.13;;
37231;SDS011;23125;48.156;15.954;2022-07-23T00:12:09;8.98;;;8.07;;
37231;SDS011;23125;48.156;15.954;2022-07-23T00:14:44;9.40;;;8.32;;
37231;SDS011;23125;48.156;15.954;2022-07-23T00:17:15;10.88;;;9.38;;
37231;SDS011;23125;48.156;15.954;2022-07-23T00:19:44;10.35;;;9.07;;
37231;SDS011;23125;48.156;15.954;2022-07-23T00:22:17;10.75;;;8.65;;
37231;SDS011;23125;48.156;15.954;2022-07-23T00:25:03;9.05;;;8.15;;
37231;SDS011;23125;48.156;15.954;2022-07-23T00:27:31;10.45;;;8.88;;
37231;SDS011;23125;48.156;15.954;2022-07-23T00:29:59;9.63;;;8.73;;
37231;SDS011;23125;48.156;15.954;2022-07-23T00:32:26;9.98;;;8.95;;
37231;SDS011;23125;48.156;15.954;2022-07-23T00:34:54;11.98;;;9.00;;
37231;SDS011;23125;48.156;15.954;2022-07-23T00:37:22;9.55;;;8.65;;
37231;SDS011;23125;48.156;15.954;2022-07-23T00:39:49;10.13;;;8.98;;
37231;SDS011;23125;48.156;15.954;2022-07-23T00:42:16;9.95;;;8.00;;
37231;SDS011;23125;48.156;15.954;2022-07-23T00:44:44;10.05;;;8.90;;
37231;SDS011;23125;48.156;15.954;2022-07-23T00:47:13;12.37;;;8.83;;
37231;SDS011;23125;48.156;15.954;2022-07-23T00:49:40;8.90;;;8.00;;
37231;SDS011;23125;48.156;15.954;2022-07-23T00:52:08;9.68;;;8.27;;
37231;SDS011;23125;48.156;15.954;2022-07-23T00:54:36;9.65;;;8.57;;
37231;SDS011;23125;48.156;15.954;2022-07-23T00:57:04;9.55;;;8.55;;
37231;SDS011;23125;48.156;15.954;2022-07-23T00:59:32;10.50;;;9.07;;
37231;SDS011;23125;48.156;15.954;2022-07-23T01:01:59;9.82;;;8.90;;
37231;SDS011;23125;48.156;15.954;2022-07-23T01:04:26;9.85;;;8.45;;
37231;SDS011;23125;48.156;15.954;2022-07-23T01:06:56;9.00;;;8.20;;
37231;SDS011;23125;48.156;15.954;2022-07-23T01:09:25;10.50;;;8.38;;
37231;SDS011;23125;48.156;15.954;2022-07-23T01:11:58;9.00;;;8.10;;
37231;SDS011;23125;48.156;15.954;2022-07-23T01:14:31;9.57;;;8.57;;
37231;SDS011;23125;48.156;15.954;2022-07-23T01:17:00;9.90;;;8.43;;
37231;SDS011;23125;48.156;15.954;2022-07-23T01:19:30;11.65;;;9.05;;
37231;SDS011;23125;48.156;15.954;2022-07-23T01:21:58;15.63;;;8.55;;
37231;SDS011;23125;48.156;15.954;2022-07-23T01:24:29;11.20;;;9.95;;
37231;SDS011;23125;48.156;15.954;2022-07-23T01:26:58;10.13;;;9.13;;
37231;SDS011;23125;48.156;15.954;2022-07-23T01:29:26;10.45;;;9.43;;
37231;SDS011;23125;48.156;15.954;2022-07-23T01:31:58;9.43;;;8.27;;
37231;SDS011;23125;48.156;15.954;2022-07-23T01:34:26;10.52;;;9.43;;
37231;SDS011;23125;48.156;15.954;2022-07-23T01:36:54;10.15;;;9.25;;
37231;SDS011;23125;48.156;15.954;2022-07-23T01:39:23;12.20;;;9.55;;
37231;SDS011;23125;48.156;15.954;2022-07-23T01:41:50;9.93;;;8.93;;
37231;SDS011;23125;48.156;15.954;2022-07-23T01:44:21;9.45;;;8.60;;
37231;SDS011;23125;48.156;15.954;2022-07-23T01:46:48;9.55;;;8.60;;
37231;SDS011;23125;48.156;15.954;2022-07-23T01:49:16;12.80;;;9.70;;
37231;SDS011;23125;48.156;15.954;2022-07-23T01:51:45;10.05;;;8.52;;
37231;SDS011;23125;48.156;15.954;2022-07-23T01:54:33;10.00;;;9.00;;
37231;SDS011;23125;48.156;15.954;2022-07-23T01:57:03;9.77;;;8.77;;
37231;SDS011;23125;48.156;15.954;2022-07-23T01:59:32;9.18;;;8.27;;
37231;SDS011;23125;48.156;15.954;2022-07-23T02:02:03;10.23;;;8.68;;
37231;SDS011;23125;48.156;15.954;2022-07-23T02:04:42;9.55;;;8.65;;
37231;SDS011;23125;48.156;15.954;2022-07-23T02:07:09;9.82;;;8.82;;
37231;SDS011;23125;48.156;15.954;2022-07-23T02:09:37;11.77;;;9.82;;
37231;SDS011;23125;48.156;15.954;2022-07-23T02:12:04;10.82;;;9.73;;
37231;SDS011;23125;48.156;15.954;2022-07-23T02:14:31;10.05;;;8.88;;
37231;SDS011;23125;48.156;15.954;2022-07-23T02:17:04;17.75;;;10.95;;
37231;SDS011;23125;48.156;15.954;2022-07-23T02:19:36;12.32;;;11.13;;
37231;SDS011;23125;48.156;15.954;2022-07-23T02:22:02;12.15;;;10.38;;
37231;SDS011;23125;48.156;15.954;2022-07-23T02:24:31;13.10;;;11.82;;
37231;SDS011;23125;48.156;15.954;2022-07-23T02:27:02;12.18;;;10.88;;
37231;SDS011;23125;48.156;15.954;2022-07-23T02:29:34;11.75;;;10.25;;
37231;SDS011;23125;48.156;15.954;2022-07-23T02:32:09;11.70;;;10.45;;
37231;SDS011;23125;48.156;15.954;2022-07-23T02:34:48;11.88;;;10.65;;
37231;SDS011;23125;48.156;15.954;2022-07-23T02:37:16;12.90;;;11.70;;
37231;SDS011;23125;48.156;15.954;2022-07-23T02:39:49;12.15;;;10.95;;
37231;SDS011;23125;48.156;15.954;2022-07-23T02:42:17;13.23;;;11.60;;
37231;SDS011;23125;48.156;15.954;2022-07-23T02:44:45;12.27;;;11.07;;
37231;SDS011;23125;48.156;15.954;2022-07-23T02:47:17;12.23;;;10.98;;
37231;SDS011;23125;48.156;15.954;2022-07-23T02:49:46;11.57;;;10.45;;
37231;SDS011;23125;48.156;15.954;2022-07-23T02:52:19;11.77;;;10.52;;
37231;SDS011;23125;48.156;15.954;2022-07-23T02:54:50;12.65;;;10.30;;
37231;SDS011;23125;48.156;15.954;2022-07-23T02:57:18;11.52;;;10.52;;
37231;SDS011;23125;48.156;15.954;2022-07-23T02:59:51;12.82;;;10.82;;
37231;SDS011;23125;48.156;15.954;2022-07-23T03:02:36;13.75;;;11.27;;
37231;SDS011;23125;48.156;15.954;2022-07-23T03:05:09;11.70;;;10.50;;
37231;SDS011;23125;48.156;15.954;2022-07-23T03:07:55;11.55;;;10.43;;
37231;SDS011;23125;48.156;15.954;2022-07-23T03:10:46;10.52;;;9.43;;
37231;SDS011;23125;48.156;15.954;2022-07-23T03:13:34;12.93;;;10.85;;
37231;SDS011;23125;48.156;15.954;2022-07-23T03:16:13;11.82;;;10.60;;
37231;SDS011;23125;48.156;15.954;2022-07-23T03:18:57;12.18;;;10.52;;
37231;SDS011;23125;48.156;15.954;2022-07-23T03:21:34;11.73;;;10.18;;
37231;SDS011;23125;48.156;15.954;2022-07-23T03:24:12;12.85;;;10.88;;
37231;SDS011;23125;48.156;15.954;2022-07-23T03:26:45;10.88;;;9.77;;
37231;SDS011;23125;48.156;15.954;2022-07-23T03:29:25;11.50;;;10.38;;
37231;SDS011;23125;48.156;15.954;2022-07-23T03:32:13;12.55;;;11.20;;
37231;SDS011;23125;48.156;15.954;2022-07-23T03:34:55;11.55;;;10.35;;
37231;SDS011;23125;48.156;15.954;2022-07-23T03:37:39;13.40;;;10.60;;
37231;SDS011;23125;48.156;15.954;2022-07-23T03:40:18;11.07;;;9.93;;
37231;SDS011;23125;48.156;15.954;2022-07-23T03:43:01;11.27;;;10.00;;
37231;SDS011;23125;48.156;15.954;2022-07-23T03:45:47;13.63;;;10.82;;
37231;SDS011;23125;48.156;15.954;2022-07-23T03:48:24;11.88;;;10.68;;
37231;SDS011;23125;48.156;15.954;2022-07-23T03:50:56;11.25;;;10.07;;
37231;SDS011;23125;48.156;15.954;2022-07-23T03:53:38;11.25;;;10.10;;
37231;SDS011;23125;48.156;15.954;2022-07-23T03:56:20;12.98;;;11.55;;
37231;SDS011;23125;48.156;15.954;2022-07-23T03:58:59;12.45;;;10.88;;
37231;SDS011;23125;48.156;15.954;2022-07-23T04:01:40;11.60;;;10.40;;
37231;SDS011;23125;48.156;15.954;2022-07-23T04:04:14;11.68;;;10.57;;
37231;SDS011;23125;48.156;15.954;2022-07-23T04:06:46;11.68;;;10.57;;
37231;SDS011;23125;48.156;15.954;2022-07-23T04:09:20;12.02;;;10.82;;
37231;SDS011;23125;48.156;15.954;2022-07-23T04:11:50;11.50;;;10.38;;
37231;SDS011;23125;48.156;15.954;2022-07-23T04:14:19;12.07;;;10.57;;
37231;SDS011;23125;48.156;15.954;2022-07-23T04:16:51;11.50;;;10.40;;
37231;SDS011;23125;48.156;15.954;2022-07-23T04:19:25;11.20;;;10.10;;
37231;SDS011;23125;48.156;15.954;2022-07-23T04:22:05;11.77;;;10.55;;
37231;SDS011;23125;48.156;15.954;2022-07-23T04:24:33;11.27;;;10.25;;
37231;SDS011;23125;48.156;15.954;2022-07-23T04:27:03;12.05;;;10.95;;
37231;SDS011;23125;48.156;15.954;2022-07-23T04:29:34;11.80;;;10.68;;
37231;SDS011;23125;48.156;15.954;2022-07-23T04:32:16;11.82;;;10.52;;
37231;SDS011;23125;48.156;15.954;2022-07-23T04:34:59;12.77;;;10.88;;
37231;SDS011;23125;48.156;15.954;2022-07-23T04:37:49;11.02;;;9.93;;
37231;SDS011;23125;48.156;15.954;2022-07-23T04:40:22;11.38;;;10.13;;
37231;SDS011;23125;48.156;15.954;2022-07-23T04:42:58;12.60;;;10.65;;
37231;SDS011;23125;48.156;15.954;2022-07-23T04:45:30;12.00;;;10.82;;
37231;SDS011;23125;48.156;15.954;2022-07-23T04:48:02;11.95;;;10.85;;
37231;SDS011;23125;48.156;15.954;2022-07-23T04:50:30;10.93;;;9.82;;
37231;SDS011;23125;48.156;15.954;2022-07-23T04:52:57;12.35;;;11.15;;
37231;SDS011;23125;48.156;15.954;2022-07-23T04:55:26;13.23;;;11.95;;
37231;SDS011;23125;48.156;15.954;2022-07-23T04:57:59;12.07;;;10.88;;
37231;SDS011;23125;48.156;15.954;2022-07-23T05:00:28;12.57;;;11.27;;
37231;SDS011;23125;48.156;15.954;2022-07-23T05:02:59;12.80;;;11.30;;
37231;SDS011;23125;48.156;15.954;2022-07-23T05:05:27;12.15;;;10.93;;
37231;SDS011;23125;48.156;15.954;2022-07-23T05:07:59;13.55;;;12.20;;
37231;SDS011;23125;48.156;15.954;2022-07-23T05:10:31;12.05;;;10.90;;
37231;SDS011;23125;48.156;15.954;2022-07-23T05:13:05;10.90;;;9.75;;
37231;SDS011;23125;48.156;15.954;2022-07-23T05:15:33;11.73;;;10.53;;
37231;SDS011;23125;48.156;15.954;2022-07-23T05:18:00;11.43;;;10.20;;
37231;SDS011;23125;48.156;15.954;2022-07-23T05:20:28;11.23;;;10.13;;
37231;SDS011;23125;48.156;15.954;2022-07-23T05:22:57;10.93;;;9.82;;
37231;SDS011;23125;48.156;15.954;2022-07-23T05:25:24;10.45;;;9.45;;
37231;SDS011;23125;48.156;15.954;2022-07-23T05:27:53;9.93;;;9.02;;
37231;SDS011;23125;48.156;15.954;2022-07-23T05:30:20;10.10;;;9.15;;
37231;SDS011;23125;48.156;15.954;2022-07-23T05:32:48;8.80;;;7.97;;
37231;SDS011;23125;48.156;15.954;2022-07-23T05:35:16;9.23;;;8.32;;
37231;SDS011;23125;48.156;15.954;2022-07-23T05:37:42;10.25;;;8.10;;
37231;SDS011;23125;48.156;15.954;2022-07-23T05:40:10;9.23;;;8.32;;
37231;SDS011;23125;48.156;15.954;2022-07-23T05:42:38;9.45;;;8.52;;
37231;SDS011;23125;48.156;15.954;2022-07-23T05:45:13;8.52;;;7.80;;
37231;SDS011;23125;48.156;15.954;2022-07-23T05:47:44;9.50;;;8.45;;
37231;SDS011;23125;48.156;15.954;2022-07-23T05:50:14;8.77;;;7.82;;
37231;SDS011;23125;48.156;15.954;2022-07-23T05:52:43;9.98;;;8.15;;
37231;SDS011;23125;48.156;15.954;2022-07-23T05:55:19;8.48;;;7.68;;
37231;SDS011;23125;48.156;15.954;2022-07-23T05:57:51;8.70;;;7.80;;
37231;SDS011;23125;48.156;15.954;2022-07-23T06:00:19;8.05;;;6.22;;
37231;SDS011;23125;48.156;15.954;2022-07-23T06:02:52;6.75;;;6.15;;
37231;SDS011;23125;48.156;15.954;2022-07-23T06:05:25;7.13;;;6.43;;
37231;SDS011;23125;48.156;15.954;2022-07-23T06:07:57;6.18;;;5.57;;
37231;SDS011;23125;48.156;15.954;2022-07-23T06:10:25;6.95;;;5.28;;
37231;SDS011;23125;48.156;15.954;2022-07-23T06:13:07;6.75;;;5.65;;
37231;SDS011;23125;48.156;15.954;2022-07-23T06:15:52;6.07;;;5.30;;
37231;SDS011;23125;48.156;15.954;2022-07-23T06:18:23;5.10;;;4.60;;
37231;SDS011;23125;48.156;15.954;2022-07-23T06:21:08;5.63;;;5.13;;
37231;SDS011;23125;48.156;15.954;2022-07-23T06:23:50;5.15;;;4.72;;
37231;SDS011;23125;48.156;15.954;2022-07-23T06:26:38;5.85;;;5.30;;
37231;SDS011;23125;48.156;15.954;2022-07-23T06:29:13;6.70;;;5.80;;
37231;SDS011;23125;48.156;15.954;2022-07-23T06:31:40;8.20;;;5.47;;
37231;SDS011;23125;48.156;15.954;2022-07-23T06:34:12;6.30;;;5.70;;
37231;SDS011;23125;48.156;15.954;2022-07-23T06:36:40;5.95;;;5.45;;
37231;SDS011;23125;48.156;15.954;2022-07-23T06:39:18;5.68;;;5.18;;
37231;SDS011;23125;48.156;15.954;2022-07-23T06:41:47;5.43;;;4.93;;
37231;SDS011;23125;48.156;15.954;2022-07-23T06:44:14;4.80;;;4.40;;
37231;SDS011;23125;48.156;15.954;2022-07-23T06:46:43;5.20;;;4.78;;
37231;SDS011;23125;48.156;15.954;2022-07-23T06:49:10;5.18;;;4.78;;
37231;SDS011;23125;48.156;15.954;2022-07-23T06:51:42;5.38;;;4.88;;
37231;SDS011;23125;48.156;15.954;2022-07-23T06:54:09;5.25;;;4.75;;
37231;SDS011;23125;48.156;15.954;2022-07-23T06:56:36;5.00;;;4.50;;
37231;SDS011;23125;48.156;15.954;2022-07-23T06:59:03;4.63;;;4.32;;
37231;SDS011;23125;48.156;15.954;2022-07-23T07:01:30;5.30;;;4.85;;
37231;SDS011;23125;48.156;15.954;2022-07-23T07:04:02;4.38;;;4.05;;
37231;SDS011;23125;48.156;15.954;2022-07-23T07:06:29;4.13;;;3.65;;
37231;SDS011;23125;48.156;15.954;2022-07-23T07:09:01;5.40;;;4.50;;
37231;SDS011;23125;48.156;15.954;2022-07-23T07:11:28;4.05;;;3.72;;
37231;SDS011;23125;48.156;15.954;2022-07-23T07:13:54;5.57;;;4.18;;
37231;SDS011;23125;48.156;15.954;2022-07-23T07:16:23;4.47;;;4.07;;
37231;SDS011;23125;48.156;15.954;2022-07-23T07:18:57;4.90;;;4.50;;
37231;SDS011;23125;48.156;15.954;2022-07-23T07:21:24;4.72;;;4.32;;
37231;SDS011;23125;48.156;15.954;2022-07-23T07:23:57;4.05;;;3.70;;
37231;SDS011;23125;48.156;15.954;2022-07-23T07:26:24;4.32;;;4.03;;
37231;SDS011;23125;48.156;15.954;2022-07-23T07:28:54;6.53;;;4.63;;
37231;SDS011;23125;48.156;15.954;2022-07-23T07:31:27;4.60;;;4.05;;
37231;SDS011;23125;48.156;15.954;2022-07-23T07:33:58;3.95;;;3.65;;
37231;SDS011;23125;48.156;15.954;2022-07-23T07:36:30;4.28;;;3.47;;
37231;SDS011;23125;48.156;15.954;2022-07-23T07:38:57;4.95;;;3.85;;
37231;SDS011;23125;48.156;15.954;2022-07-23T07:41:25;4.47;;;3.85;;
37231;SDS011;23125;48.156;15.954;2022-07-23T07:44:02;4.53;;;4.07;;
37231;SDS011;23125;48.156;15.954;2022-07-23T07:46:42;3.97;;;3.67;;
37231;SDS011;23125;48.156;15.954;2022-07-23T07:49:17;4.93;;;3.78;;
37231;SDS011;23125;48.156;15.954;2022-07-23T07:51:57;4.40;;;4.00;;
37231;SDS011;23125;48.156;15.954;2022-07-23T07:54:31;4.47;;;3.70;;
37231;SDS011;23125;48.156;15.954;2022-07-23T07:56:58;4.55;;;4.15;;
37231;SDS011;23125;48.156;15.954;2022-07-23T07:59:30;6.30;;;3.83;;
37231;SDS011;23125;48.156;15.954;2022-07-23T08:02:07;4.60;;;4.20;;
37231;SDS011;23125;48.156;15.954;2022-07-23T08:04:41;4.30;;;3.63;;
37231;SDS011;23125;48.156;15.954;2022-07-23T08:07:29;4.80;;;4.40;;
37231;SDS011;23125;48.156;15.954;2022-07-23T08:10:04;4.35;;;3.90;;
37231;SDS011;23125;48.156;15.954;2022-07-23T08:12:55;4.38;;;3.97;;
37231;SDS011;23125;48.156;15.954;2022-07-23T08:15:27;4.00;;;3.70;;
37231;SDS011;23125;48.156;15.954;2022-07-23T08:18:11;4.63;;;4.25;;
37231;SDS011;23125;48.156;15.954;2022-07-23T08:20:50;4.63;;;4.22;;
37231;SDS011;23125;48.156;15.954;2022-07-23T08:23:40;5.85;;;5.20;;
37231;SDS011;23125;48.156;15.954;2022-07-23T08:26:22;4.78;;;4.38;;
37231;SDS011;23125;48.156;15.954;2022-07-23T08:29:14;6.03;;;5.43;;
37231;SDS011;23125;48.156;15.954;2022-07-23T08:31:48;4.97;;;4.50;;
37231;SDS011;23125;48.156;15.954;2022-07-23T08:34:37;5.55;;;5.05;;
37231;SDS011;23125;48.156;15.954;2022-07-23T08:37:21;5.75;;;4.85;;
37231;SDS011;23125;48.156;15.954;2022-07-23T08:40:00;5.32;;;4.82;;
37231;SDS011;23125;48.156;15.954;2022-07-23T08:42:49;4.97;;;4.57;;
37231;SDS011;23125;48.156;15.954;2022-07-23T08:45:17;5.13;;;4.68;;
37231;SDS011;23125;48.156;15.954;2022-07-23T08:47:50;5.10;;;4.70;;
37231;SDS011;23125;48.156;15.954;2022-07-23T08:50:18;5.18;;;4.78;;
37231;SDS011;23125;48.156;15.954;2022-07-23T08:52:51;5.60;;;5.10;;
37231;SDS011;23125;48.156;15.954;2022-07-23T08:55:39;6.88;;;5.22;;
37231;SDS011;23125;48.156;15.954;2022-07-23T08:58:06;5.72;;;5.22;;
37231;SDS011;23125;48.156;15.954;2022-07-23T09:00:35;6.38;;;5.10;;
37231;SDS011;23125;48.156;15.954;2022-07-23T09:05:42;6.03;;;5.43;;
37231;SDS011;23125;48.156;15.954;2022-07-23T09:08:23;5.45;;;5.03;;
37231;SDS011;23125;48.156;15.954;2022-07-23T09:11:01;5.70;;;5.20;;
37231;SDS011;23125;48.156;15.954;2022-07-23T09:13:38;6.53;;;5.70;;
37231;SDS011;23125;48.156;15.954;2022-07-23T09:16:27;5.68;;;5.20;;
37231;SDS011;23125;48.156;15.954;2022-07-23T09:19:05;5.80;;;5.30;;
37231;SDS011;23125;48.156;15.954;2022-07-23T09:22:15;5.68;;;5.20;;
37231;SDS011;23125;48.156;15.954;2022-07-23T09:27:58;7.00;;;5.82;;
37231;SDS011;23125;48.156;15.954;2022-07-23T09:30:35;6.43;;;5.82;;
37231;SDS011;23125;48.156;15.954;2022-07-23T09:33:31;6.30;;;5.72;;
37231;SDS011;23125;48.156;15.954;2022-07-23T09:36:29;5.90;;;5.30;;
37231;SDS011;23125;48.156;15.954;2022-07-23T09:39:10;5.22;;;4.82;;
37231;SDS011;23125;48.156;15.954;2022-07-23T09:42:01;5.70;;;5.15;;
37231;SDS011;23125;48.156;15.954;2022-07-23T09:44:54;6.03;;;5.55;;
37231;SDS011;23125;48.156;15.954;2022-07-23T09:47:36;7.07;;;5.30;;
37231;SDS011;23125;48.156;15.954;2022-07-23T09:50:23;6.53;;;5.38;;
37231;SDS011;23125;48.156;15.954;2022-07-23T09:52:59;5.93;;;4.90;;
37231;SDS011;23125;48.156;15.954;2022-07-23T09:55:31;5.78;;;5.28;;
37231;SDS011;23125;48.156;15.954;2022-07-23T09:58:10;5.80;;;5.30;;
37231;SDS011;23125;48.156;15.954;2022-07-23T10:00:44;4.75;;;4.43;;
37231;SDS011;23125;48.156;15.954;2022-07-23T10:03:14;5.45;;;4.85;;
37231;SDS011;23125;48.156;15.954;2022-07-23T10:05:46;5.50;;;5.00;;
37231;SDS011;23125;48.156;15.954;2022-07-23T10:08:20;5.85;;;5.15;;
37231;SDS011;23125;48.156;15.954;2022-07-23T10:11:06;5.90;;;4.72;;
37231;SDS011;23125;48.156;15.954;2022-07-23T10:13:36;5.78;;;4.68;;
37231;SDS011;23125;48.156;15.954;2022-07-23T10:16:26;5.45;;;4.95;;
37231;SDS011;23125;48.156;15.954;2022-07-23T10:18:54;4.67;;;4.27;;
37231;SDS011;23125;48.156;15.954;2022-07-23T10:21:24;4.70;;;4.30;;
37231;SDS011;23125;48.156;15.954;2022-07-23T10:27:32;6.60;;;5.82;;
37231;SDS011;23125;48.156;15.954;2022-07-23T10:36:35;5.13;;;4.70;;
37231;SDS011;23125;48.156;15.954;2022-07-23T10:39:39;5.70;;;4.80;;
37231;SDS011;23125;48.156;15.954;2022-07-23T10:42:42;6.05;;;5.00;;
37231;SDS011;23125;48.156;15.954;2022-07-23T10:45:29;5.80;;;5.10;;
37231;SDS011;23125;48.156;15.954;2022-07-23T10:48:23;5.50;;;5.00;;
37231;SDS011;23125;48.156;15.954;2022-07-23T10:51:12;5.35;;;4.85;;
37231;SDS011;23125;48.156;15.954;2022-07-23T10:54:01;5.00;;;4.60;;
37231;SDS011;23125;48.156;15.954;2022-07-23T11:00:08;5.50;;;4.40;;
37231;SDS011;23125;48.156;15.954;2022-07-23T11:02:39;5.57;;;4.88;;
37231;SDS011;23125;48.156;15.954;2022-07-23T11:05:38;5.72;;;4.65;;
37231;SDS011;23125;48.156;15.954;2022-07-23T11:08:30;6.03;;;5.53;;
37231;SDS011;23125;48.156;15.954;2022-07-23T11:13:39;4.72;;;4.32;;
37231;SDS011;23125;48.156;15.954;2022-07-23T11:16:12;4.97;;;4.57;;
37231;SDS011;23125;48.156;15.954;2022-07-23T11:19:08;4.95;;;4.45;;
37231;SDS011;23125;48.156;15.954;2022-07-23T11:21:48;4.63;;;4.13;;
37231;SDS011;23125;48.156;15.954;2022-07-23T11:24:29;5.57;;;5.07;;
37231;SDS011;23125;48.156;15.954;2022-07-23T11:26:58;5.97;;;4.68;;
37231;SDS011;23125;48.156;15.954;2022-07-23T11:29:37;10.98;;;4.80;;
37231;SDS011;23125;48.156;15.954;2022-07-23T11:35:00;5.03;;;4.55;;
37231;SDS011;23125;48.156;15.954;2022-07-23T11:37:38;4.90;;;3.80;;
37231;SDS011;23125;48.156;15.954;2022-07-23T11:40:18;4.72;;;4.22;;
37231;SDS011;23125;48.156;15.954;2022-07-23T11:43:06;4.35;;;3.95;;
37231;SDS011;23125;48.156;15.954;2022-07-23T11:45:57;4.20;;;3.80;;
37231;SDS011;23125;48.156;15.954;2022-07-23T11:49:00;5.20;;;3.45;;
37231;SDS011;23125;48.156;15.954;2022-07-23T11:51:34;6.07;;;4.03;;
37231;SDS011;23125;48.156;15.954;2022-07-23T11:54:07;4.22;;;3.55;;
37231;SDS011;23125;48.156;15.954;2022-07-23T11:56:34;5.60;;;3.92;;
37231;SDS011;23125;48.156;15.954;2022-07-23T11:59:01;4.15;;;3.75;;
37231;SDS011;23125;48.156;15.954;2022-07-23T12:01:40;3.70;;;3.28;;
37231;SDS011;23125;48.156;15.954;2022-07-23T12:04:42;4.13;;;3.10;;
37231;SDS011;23125;48.156;15.954;2022-07-23T12:07:27;3.45;;;3.15;;
37231;SDS011;23125;48.156;15.954;2022-07-23T12:10:08;3.03;;;2.72;;
37231;SDS011;23125;48.156;15.954;2022-07-23T12:12:50;6.07;;;2.97;;
37231;SDS011;23125;48.156;15.954;2022-07-23T12:15:27;3.85;;;3.00;;
37231;SDS011;23125;48.156;15.954;2022-07-23T12:18:14;3.28;;;2.95;;
37231;SDS011;23125;48.156;15.954;2022-07-23T12:21:03;3.90;;;2.80;;
37231;SDS011;23125;48.156;15.954;2022-07-23T12:23:48;3.15;;;2.85;;
37231;SDS011;23125;48.156;15.954;2022-07-23T12:26:31;3.28;;;2.33;;
37231;SDS011;23125;48.156;15.954;2022-07-23T12:29:02;2.72;;;2.40;;
37231;SDS011;23125;48.156;15.954;2022-07-23T12:31:42;2.28;;;1.95;;
37231;SDS011;23125;48.156;15.954;2022-07-23T12:34:20;3.85;;;2.40;;
37231;SDS011;23125;48.156;15.954;2022-07-23T12:36:48;3.00;;;2.30;;
37231;SDS011;23125;48.156;15.954;2022-07-23T12:39:35;2.30;;;2.10;;
37231;SDS011;23125;48.156;15.954;2022-07-23T12:42:10;3.35;;;2.30;;
37231;SDS011;23125;48.156;15.954;2022-07-23T12:45:04;2.70;;;2.13;;
37231;SDS011;23125;48.156;15.954;2022-07-23T12:48:14;2.83;;;1.98;;
37231;SDS011;23125;48.156;15.954;2022-07-23T12:51:06;2.38;;;1.80;;
37231;SDS011;23125;48.156;15.954;2022-07-23T12:53:43;2.88;;;2.20;;
37231;SDS011;23125;48.156;15.954;2022-07-23T12:56:32;2.50;;;2.15;;
37231;SDS011;23125;48.156;15.954;2022-07-23T12:59:30;1.92;;;1.80;;
37231;SDS011;23125;48.156;15.954;2022-07-23T13:02:51;2.10;;;1.83;;
37231;SDS011;23125;48.156;15.954;2022-07-23T13:05:26;2.88;;;2.15;;
37231;SDS011;23125;48.156;15.954;2022-07-23T13:08:19;4.28;;;2.33;;
37231;SDS011;23125;48.156;15.954;2022-07-23T13:11:12;2.50;;;2.10;;
37231;SDS011;23125;48.156;15.954;2022-07-23T13:14:08;2.42;;;2.17;;
37231;SDS011;23125;48.156;15.954;2022-07-23T13:17:03;2.30;;;2.10;;
37231;SDS011;23125;48.156;15.954;2022-07-23T13:19:46;2.50;;;2.10;;
37231;SDS011;23125;48.156;15.954;2022-07-23T13:22:31;2.42;;;2.17;;
37231;SDS011;23125;48.156;15.954;2022-07-23T13:25:21;3.13;;;2.20;;
37231;SDS011;23125;48.156;15.954;2022-07-23T13:27:54;2.70;;;2.50;;
37231;SDS011;23125;48.156;15.954;2022-07-23T13:30:38;3.60;;;2.63;;
37231;SDS011;23125;48.156;15.954;2022-07-23T13:33:28;3.13;;;2.75;;
37231;SDS011;23125;48.156;15.954;2022-07-23T13:36:14;2.58;;;2.30;;
37231;SDS011;23125;48.156;15.954;2022-07-23T13:39:04;2.95;;;2.47;;
37231;SDS011;23125;48.156;15.954;2022-07-23T13:41:33;2.97;;;2.78;;
37231;SDS011;23125;48.156;15.954;2022-07-23T13:44:06;6.13;;;4.97;;
37231;SDS011;23125;48.156;15.954;2022-07-23T13:46:44;4.70;;;3.47;;
37231;SDS011;23125;48.156;15.954;2022-07-23T13:49:12;4.18;;;3.25;;
37231;SDS011;23125;48.156;15.954;2022-07-23T13:51:44;3.75;;;2.90;;
37231;SDS011;23125;48.156;15.954;2022-07-23T13:54:24;3.53;;;3.22;;
37231;SDS011;23125;48.156;15.954;2022-07-23T13:56:53;3.40;;;2.90;;
37231;SDS011;23125;48.156;15.954;2022-07-23T13:59:28;4.35;;;3.42;;
37231;SDS011;23125;48.156;15.954;2022-07-23T14:02:01;3.60;;;2.70;;
37231;SDS011;23125;48.156;15.954;2022-07-23T14:04:35;3.72;;;2.83;;
37231;SDS011;23125;48.156;15.954;2022-07-23T14:07:10;3.67;;;3.38;;
37231;SDS011;23125;48.156;15.954;2022-07-23T14:09:45;3.45;;;3.15;;
37231;SDS011;23125;48.156;15.954;2022-07-23T14:12:29;3.50;;;3.13;;
37231;SDS011;23125;48.156;15.954;2022-07-23T14:17:37;3.63;;;2.92;;
37231;SDS011;23125;48.156;15.954;2022-07-23T14:20:11;3.63;;;3.33;;
37231;SDS011;23125;48.156;15.954;2022-07-23T14:22:39;3.30;;;3.00;;
37231;SDS011;23125;48.156;15.954;2022-07-23T14:25:08;3.50;;;2.90;;
37231;SDS011;23125;48.156;15.954;2022-07-23T14:27:49;3.33;;;2.88;;
37231;SDS011;23125;48.156;15.954;2022-07-23T14:30:17;5.15;;;3.00;;
37231;SDS011;23125;48.156;15.954;2022-07-23T14:32:49;3.42;;;2.88;;
37231;SDS011;23125;48.156;15.954;2022-07-23T14:35:16;3.95;;;2.97;;
37231;SDS011;23125;48.156;15.954;2022-07-23T14:37:49;3.38;;;3.08;;
37231;SDS011;23125;48.156;15.954;2022-07-23T14:40:29;3.30;;;3.00;;
37231;SDS011;23125;48.156;15.954;2022-07-23T14:42:56;3.33;;;2.70;;
37231;SDS011;23125;48.156;15.954;2022-07-23T14:45:23;4.38;;;2.88;;
37231;SDS011;23125;48.156;15.954;2022-07-23T14:47:50;3.45;;;3.00;;
37231;SDS011;23125;48.156;15.954;2022-07-23T14:50:17;3.35;;;3.05;;
37231;SDS011;23125;48.156;15.954;2022-07-23T14:52:44;3.10;;;2.80;;
37231;SDS011;23125;48.156;15.954;2022-07-23T14:55:11;4.68;;;3.10;;
37231;SDS011;23125;48.156;15.954;2022-07-23T14:57:45;3.63;;;2.72;;
37231;SDS011;23125;48.156;15.954;2022-07-23T15:00:19;4.20;;;3.20;;
37231;SDS011;23125;48.156;15.954;2022-07-23T15:02:46;3.65;;;3.05;;
37231;SDS011;23125;48.156;15.954;2022-07-23T15:05:22;3.05;;;2.78;;
37231;SDS011;23125;48.156;15.954;2022-07-23T15:07:49;3.50;;;3.05;;
37231;SDS011;23125;48.156;15.954;2022-07-23T15:10:23;3.55;;;3.25;;
37231;SDS011;23125;48.156;15.954;2022-07-23T15:12:54;3.75;;;3.15;;
37231;SDS011;23125;48.156;15.954;2022-07-23T15:15:21;4.60;;;3.30;;
37231;SDS011;23125;48.156;15.954;2022-07-23T15:17:50;3.50;;;3.20;;
37231;SDS011;23125;48.156;15.954;2022-07-23T15:20:33;4.25;;;3.47;;
37231;SDS011;23125;48.156;15.954;2022-07-23T15:23:02;3.63;;;3.28;;
37231;SDS011;23125;48.156;15.954;2022-07-23T15:25:42;3.38;;;3.08;;
37231;SDS011;23125;48.156;15.954;2022-07-23T15:28:13;3.38;;;3.08;;
37231;SDS011;23125;48.156;15.954;2022-07-23T15:30:46;3.92;;;3.42;;
37231;SDS011;23125;48.156;15.954;2022-07-23T15:33:23;4.20;;;3.42;;
37231;SDS011;23125;48.156;15.954;2022-07-23T15:35:58;3.42;;;3.13;;
37231;SDS011;23125;48.156;15.954;2022-07-23T15:38:29;3.35;;;3.05;;
37231;SDS011;23125;48.156;15.954;2022-07-23T15:40:56;4.25;;;3.22;;
37231;SDS011;23125;48.156;15.954;2022-07-23T15:43:24;4.22;;;3.70;;
37231;SDS011;23125;48.156;15.954;2022-07-23T15:45:52;3.75;;;3.15;;